sensor_id;sensor_type;location;lat;lon;timestamp;pressure;altitude;pressure_sealevel;temperature;humidity
32638;BME280;19045;52.268;10.506;2023-04-01T00:01:39;98626.56;;;10.04;100.00
32638;BME280;19045;52.268;10.506;2023-04-01T00:04:05;98620.03;;;10.10;100.00
32638;BME280;19045;52.268;10.506;2023-04-01T00:06:32;98626.19;;;10.11;100.00
32638;BME280;19045;52.268;10.506;2023-04-01T00:08:59;98628.78;;;10.16;100.00
32638;BME280;19045;52.268;10.506;2023-04-01T00:11:27;98623.78;;;10.09;100.00
32638;BME280;19045;52.268;10.506;2023-04-01T00:13:54;98624.59;;;10.10;100.00
32638;BME280;19045;52.268;10.506;2023-04-01T00:16:21;98618.22;;;10.06;100.00
32638;BME280;19045;52.268;10.506;2023-04-01T00:18:48;98620.03;;;10.10;100.00
32638;BME280;19045;52.268;10.506;2023-04-01T00:21:15;98618.34;;;10.14;100.00
32638;BME280;19045;52.268;10.506;2023-04-01T00:23:42;98617.84;;;10.12;100.00
32638;BME280;19045;52.268;10.506;2023-04-01T00:26:09;98622.72;;;10.10;100.00
32638;BME280;19045;52.268;10.506;2023-04-01T00:28:38;98624.28;;;10.11;100.00
32638;BME280;19045;52.268;10.506;2023-04-01T00:31:06;98629.97;;;10.10;100.00
32638;BME280;19045;52.268;10.506;2023-04-01T00:33:35;98617.03;;;10.12;100.00
32638;BME280;19045;52.268;10.506;2023-04-01T00:36:06;98621.03;;;10.14;100.00
32638;BME280;19045;52.268;10.506;2023-04-01T00:38:33;98619.72;;;10.12;100.00
32638;BME280;19045;52.268;10.506;2023-04-01T00:41:00;98615.09;;;10.17;100.00
32638;BME280;19045;52.268;10.506;2023-04-01T00:43:27;98620.75;;;10.16;100.00
32638;BME280;19045;52.268;10.506;2023-04-01T00:45:55;98618.25;;;10.19;100.00
32638;BME280;19045;52.268;10.506;2023-04-01T00:48:26;98617.25;;;10.15;100.00
32638;BME280;19045;52.268;10.506;2023-04-01T00:50:58;98618.34;;;10.14;100.00
32638;BME280;19045;52.268;10.506;2023-04-01T00:53:28;98608.13;;;10.16;100.00
32638;BME280;19045;52.268;10.506;2023-04-01T00:56:00;98618.63;;;10.13;100.00
32638;BME280;19045;52.268;10.506;2023-04-01T00:58:33;98612.22;;;10.14;100.00
32638;BME280;19045;52.268;10.506;2023-04-01T01:01:06;98613.53;;;10.11;100.00
32638;BME280;19045;52.268;10.506;2023-04-01T01:03:34;98623.78;;;10.09;100.00
32638;BME280;19045;52.268;10.506;2023-04-01T01:06:10;98623.88;;;10.04;100.00
32638;BME280;19045;52.268;10.506;2023-04-01T01:08:53;98624.88;;;10.08;100.00
32638;BME280;19045;52.268;10.506;2023-04-01T01:11:30;98618.22;;;10.06;100.00
32638;BME280;19045;52.268;10.506;2023-04-01T01:14:05;98618.63;;;9.99;100.00
32638;BME280;19045;52.268;10.506;2023-04-01T01:16:43;98616.41;;;10.01;100.00
32638;BME280;19045;52.268;10.506;2023-04-01T01:19:26;98614.25;;;10.03;100.00
32638;BME280;19045;52.268;10.506;2023-04-01T01:22:19;98620.81;;;9.97;100.00
32638;BME280;19045;52.268;10.506;2023-04-01T01:24:58;98621.19;;;10.04;100.00
32638;BME280;19045;52.268;10.506;2023-04-01T01:27:31;98615.34;;;10.02;100.00
32638;BME280;19045;52.268;10.506;2023-04-01T01:30:20;98612.19;;;10.00;100.00
32638;BME280;19045;52.268;10.506;2023-04-01T01:33:13;98612.78;;;9.97;100.00
32638;BME280;19045;52.268;10.506;2023-04-01T01:35:50;98621.91;;;9.96;100.00
32638;BME280;19045;52.268;10.506;2023-04-01T01:38:20;98611.25;;;9.91;100.00
32638;BME280;19045;52.268;10.506;2023-04-01T01:40:50;98617.22;;;9.88;100.00
32638;BME280;19045;52.268;10.506;2023-04-01T01:43:22;98612.16;;;9.86;100.00
32638;BME280;19045;52.268;10.506;2023-04-01T01:45:52;98608.47;;;9.82;100.00
32638;BME280;19045;52.268;10.506;2023-04-01T01:48:20;98612.97;;;9.87;100.00
32638;BME280;19045;52.268;10.506;2023-04-01T01:50:48;98618.59;;;9.85;100.00
32638;BME280;19045;52.268;10.506;2023-04-01T01:53:16;98610.34;;;9.82;100.00
32638;BME280;19045;52.268;10.506;2023-04-01T01:55:44;98628.91;;;9.78;100.00
32638;BME280;19045;52.268;10.506;2023-04-01T01:58:15;98627.16;;;9.88;100.00
32638;BME280;19045;52.268;10.506;2023-04-01T02:00:45;98622.38;;;9.84;100.00
32638;BME280;19045;52.268;10.506;2023-04-01T02:03:14;98617.81;;;9.85;100.00
32638;BME280;19045;52.268;10.506;2023-04-01T02:05:42;98622.38;;;9.84;100.00
32638;BME280;19045;52.268;10.506;2023-04-01T02:08:13;98632.88;;;9.81;100.00
32638;BME280;19045;52.268;10.506;2023-04-01T02:10:43;98628.34;;;9.95;100.00
32638;BME280;19045;52.268;10.506;2023-04-01T02:13:17;98627.34;;;9.91;100.00
32638;BME280;19045;52.268;10.506;2023-04-01T02:15:48;98634.69;;;9.85;100.00
32638;BME280;19045;52.268;10.506;2023-04-01T02:18:20;98623.38;;;9.88;100.00
32638;BME280;19045;52.268;10.506;2023-04-01T02:21:07;98625.84;;;9.85;100.00
32638;BME280;19045;52.268;10.506;2023-04-01T02:23:36;98624.28;;;9.84;100.00
32638;BME280;19045;52.268;10.506;2023-04-01T02:26:05;98628.13;;;9.78;100.00
32638;BME280;19045;52.268;10.506;2023-04-01T02:28:33;98629.22;;;9.77;100.00
32638;BME280;19045;52.268;10.506;2023-04-01T02:31:01;98625.44;;;9.78;100.00
32638;BME280;19045;52.268;10.506;2023-04-01T02:33:29;98626.56;;;9.77;100.00
32638;BME280;19045;52.268;10.506;2023-04-01T02:35:57;98635.56;;;9.81;100.00
32638;BME280;19045;52.268;10.506;2023-04-01T02:38:24;98638.25;;;9.81;100.00
32638;BME280;19045;52.268;10.506;2023-04-01T02:40:58;98629.44;;;9.80;100.00
32638;BME280;19045;52.268;10.506;2023-04-01T02:43:25;98630.63;;;9.88;100.00
32638;BME280;19045;52.268;10.506;2023-04-01T02:45:52;98645.22;;;9.82;100.00
32638;BME280;19045;52.268;10.506;2023-04-01T02:48:18;98642.31;;;9.78;100.00
32638;BME280;19045;52.268;10.506;2023-04-01T02:50:45;98637.28;;;9.77;100.00
32638;BME280;19045;52.268;10.506;2023-04-01T02:53:12;98637.75;;;9.79;100.00
32638;BME280;19045;52.268;10.506;2023-04-01T02:55:38;98639.84;;;9.82;100.00
32638;BME280;19045;52.268;10.506;2023-04-01T02:58:06;98640.94;;;9.81;100.00
32638;BME280;19045;52.268;10.506;2023-04-01T03:00:33;98638.63;;;9.74;100.00
32638;BME280;19045;52.268;10.506;2023-04-01T03:02:59;98642.22;;;9.70;100.00
32638;BME280;19045;52.268;10.506;2023-04-01T03:05:27;98641.63;;;9.73;100.00
32638;BME280;19045;52.268;10.506;2023-04-01T03:07:54;98646.69;;;9.74;100.00
32638;BME280;19045;52.268;10.506;2023-04-01T03:10:21;98650.38;;;9.78;100.00
32638;BME280;19045;52.268;10.506;2023-04-01T03:12:47;98646.41;;;9.76;100.00
32638;BME280;19045;52.268;10.506;2023-04-01T03:15:15;98642.22;;;9.70;100.00
32638;BME280;19045;52.268;10.506;2023-04-01T03:17:42;98636.69;;;9.80;100.00
32638;BME280;19045;52.268;10.506;2023-04-01T03:20:10;98641.91;;;9.71;100.00
32638;BME280;19045;52.268;10.506;2023-04-01T03:22:37;98640.84;;;9.72;100.00
32638;BME280;19045;52.268;10.506;2023-04-01T03:25:05;98640.84;;;9.72;100.00
32638;BME280;19045;52.268;10.506;2023-04-01T03:27:32;98653.75;;;9.70;100.00
32638;BME280;19045;52.268;10.506;2023-04-01T03:29:59;98650.38;;;9.78;100.00
32638;BME280;19045;52.268;10.506;2023-04-01T03:32:27;98647.28;;;9.71;100.00
32638;BME280;19045;52.268;10.506;2023-04-01T03:34:54;98646.13;;;9.77;100.00
32638;BME280;19045;52.268;10.506;2023-04-01T03:37:20;98649.38;;;9.74;100.00
32638;BME280;19045;52.268;10.506;2023-04-01T03:39:47;98656.91;;;9.72;100.00
32638;BME280;19045;52.268;10.506;2023-04-01T03:42:14;98658.81;;;9.72;100.00
32638;BME280;19045;52.268;10.506;2023-04-01T03:44:43;98645.81;;;9.79;100.00
32638;BME280;19045;52.268;10.506;2023-04-01T03:47:14;98655.03;;;9.73;100.00
32638;BME280;19045;52.268;10.506;2023-04-01T03:49:42;98648.66;;;9.69;100.00
32638;BME280;19045;52.268;10.506;2023-04-01T03:52:10;98654.94;;;9.64;100.00
32638;BME280;19045;52.268;10.506;2023-04-01T03:54:37;98657.13;;;9.76;100.00
32638;BME280;19045;52.268;10.506;2023-04-01T03:57:04;98656.63;;;9.74;100.00
32638;BME280;19045;52.268;10.506;2023-04-01T03:59:30;98655.31;;;9.71;100.00
32638;BME280;19045;52.268;10.506;2023-04-01T04:01:58;98663.47;;;9.66;100.00
32638;BME280;19045;52.268;10.506;2023-04-01T04:04:25;98653.97;;;9.74;100.00
32638;BME280;19045;52.268;10.506;2023-04-01T04:06:56;98661.47;;;9.72;100.00
32638;BME280;19045;52.268;10.506;2023-04-01T04:09:26;98659.09;;;9.70;100.00
32638;BME280;19045;52.268;10.506;2023-04-01T04:11:53;98663.66;;;9.70;100.00
32638;BME280;19045;52.268;10.506;2023-04-01T04:14:20;98660.19;;;9.69;100.00
32638;BME280;19045;52.268;10.506;2023-04-01T04:16:47;98664.69;;;9.74;100.00
32638;BME280;19045;52.268;10.506;2023-04-01T04:19:13;98670.22;;;9.64;100.00
32638;BME280;19045;52.268;10.506;2023-04-01T04:21:40;98664.69;;;9.74;100.00
32638;BME280;19045;52.268;10.506;2023-04-01T04:24:09;98673.88;;;9.68;100.00
32638;BME280;19045;52.268;10.506;2023-04-01T04:26:35;98676.88;;;9.66;100.00
32638;BME280;19045;52.268;10.506;2023-04-01T04:29:02;98678.25;;;9.64;100.00
32638;BME280;19045;52.268;10.506;2023-04-01T04:31:29;98675.56;;;9.64;100.00
32638;BME280;19045;52.268;10.506;2023-04-01T04:33:55;98675.25;;;9.65;100.00
32638;BME280;19045;52.268;10.506;2023-04-01T04:36:22;98681.59;;;9.56;100.00
32638;BME280;19045;52.268;10.506;2023-04-01T04:38:49;98686.56;;;9.62;100.00
32638;BME280;19045;52.268;10.506;2023-04-01T04:41:18;98683.69;;;9.59;100.00
32638;BME280;19045;52.268;10.506;2023-04-01T04:43:49;98676.94;;;9.61;100.00
32638;BME280;19045;52.268;10.506;2023-04-01T04:46:17;98679.00;;;9.51;100.00
32638;BME280;19045;52.268;10.506;2023-04-01T04:48:44;98681.16;;;9.49;100.00
32638;BME280;19045;52.268;10.506;2023-04-01T04:51:13;98685.72;;;9.48;100.00
32638;BME280;19045;52.268;10.506;2023-04-01T04:53:40;98688.13;;;9.50;100.00
32638;BME280;19045;52.268;10.506;2023-04-01T04:56:07;98683.56;;;9.50;100.00
32638;BME280;19045;52.268;10.506;2023-04-01T04:58:35;98682.97;;;9.53;100.00
32638;BME280;19045;52.268;10.506;2023-04-01T05:01:06;98691.66;;;9.64;100.00
32638;BME280;19045;52.268;10.506;2023-04-01T05:03:33;98689.03;;;9.59;100.00
32638;BME280;19045;52.268;10.506;2023-04-01T05:05:59;98690.56;;;9.65;100.00
32638;BME280;19045;52.268;10.506;2023-04-01T05:08:26;98695.91;;;9.65;100.00
32638;BME280;19045;52.268;10.506;2023-04-01T05:10:53;98691.34;;;9.65;100.00
32638;BME280;19045;52.268;10.506;2023-04-01T05:13:19;98695.63;;;9.66;100.00
32638;BME280;19045;52.268;10.506;2023-04-01T05:15:47;98694.63;;;9.62;100.00
32638;BME280;19045;52.268;10.506;2023-04-01T05:18:14;98695.69;;;9.61;100.00
32638;BME280;19045;52.268;10.506;2023-04-01T05:20:46;98697.13;;;9.72;100.00
32638;BME280;19045;52.268;10.506;2023-04-01T05:23:12;98697.03;;;9.64;100.00
32638;BME280;19045;52.268;10.506;2023-04-01T05:25:39;98701.41;;;9.73;100.00
32638;BME280;19045;52.268;10.506;2023-04-01T05:28:05;98700.31;;;9.74;100.00
32638;BME280;19045;52.268;10.506;2023-04-01T05:30:32;98705.19;;;9.72;100.00
32638;BME280;19045;52.268;10.506;2023-04-01T05:33:00;98711.50;;;9.63;100.00
32638;BME280;19045;52.268;10.506;2023-04-01T05:35:29;98713.59;;;9.66;100.00
32638;BME280;19045;52.268;10.506;2023-04-01T05:37:55;98711.34;;;9.73;100.00
32638;BME280;19045;52.268;10.506;2023-04-01T05:40:22;98708.66;;;9.73;100.00
32638;BME280;19045;52.268;10.506;2023-04-01T05:42:48;98709.53;;;9.68;100.00
32638;BME280;19045;52.268;10.506;2023-04-01T05:45:15;98711.03;;;9.74;100.00
32638;BME280;19045;52.268;10.506;2023-04-01T05:47:42;98716.34;;;9.79;100.00
32638;BME280;19045;52.268;10.506;2023-04-01T05:50:10;98717.13;;;9.80;100.00
32638;BME280;19045;52.268;10.506;2023-04-01T05:52:38;98721.19;;;9.77;100.00
32638;BME280;19045;52.268;10.506;2023-04-01T05:55:05;98731.63;;;9.79;100.00
32638;BME280;19045;52.268;10.506;2023-04-01T05:57:32;98718.22;;;9.79;100.00
32638;BME280;19045;52.268;10.506;2023-04-01T05:59:59;98726.25;;;9.79;100.00
32638;BME280;19045;52.268;10.506;2023-04-01T06:02:25;98719.00;;;9.79;100.00
32638;BME280;19045;52.268;10.506;2023-04-01T06:04:59;98723.28;;;9.80;100.00
32638;BME280;19045;52.268;10.506;2023-04-01T06:07:29;98719.50;;;9.81;100.00
32638;BME280;19045;52.268;10.506;2023-04-01T06:09:56;98730.81;;;9.78;100.00
32638;BME280;19045;52.268;10.506;2023-04-01T06:15:28;98742.38;;;10.25;100.00
32638;BME280;19045;52.268;10.506;2023-04-01T06:18:15;98743.81;;;10.04;100.00
32638;BME280;19045;52.268;10.506;2023-04-01T06:20:52;98743.31;;;10.02;100.00
32638;BME280;19045;52.268;10.506;2023-04-01T06:23:49;98744.69;;;9.99;100.00
32638;BME280;19045;52.268;10.506;2023-04-01T06:26:26;98741.81;;;9.96;100.00
32638;BME280;19045;52.268;10.506;2023-04-01T06:29:19;98745.97;;;10.02;100.00
32638;BME280;19045;52.268;10.506;2023-04-01T06:32:04;98746.56;;;9.99;100.00
32638;BME280;19045;52.268;10.506;2023-04-01T06:37:43;98753.16;;;10.06;100.00
32638;BME280;19045;52.268;10.506;2023-04-01T06:41:06;98755.53;;;10.08;100.00
32638;BME280;19045;52.268;10.506;2023-04-01T06:43:45;98754.41;;;10.14;100.00
32638;BME280;19045;52.268;10.506;2023-04-01T06:46:20;98755.53;;;10.26;100.00
32638;BME280;19045;52.268;10.506;2023-04-01T06:49:02;98755.34;;;10.36;100.00
32638;BME280;19045;52.268;10.506;2023-04-01T06:51:38;98754.03;;;10.48;100.00
32638;BME280;19045;52.268;10.506;2023-04-01T06:54:10;98762.31;;;10.51;100.00
32638;BME280;19045;52.268;10.506;2023-04-01T06:56:43;98759.53;;;10.56;100.00
32638;BME280;19045;52.268;10.506;2023-04-01T06:59:15;98756.25;;;10.73;100.00
32638;BME280;19045;52.268;10.506;2023-04-01T13:54:22;99066.44;;;11.26;100.00
32638;BME280;19045;52.268;10.506;2023-04-01T13:57:00;99072.56;;;11.13;100.00
32638;BME280;19045;52.268;10.506;2023-04-01T14:00:17;99075.19;;;11.00;100.00
32638;BME280;19045;52.268;10.506;2023-04-01T14:03:12;99074.59;;;10.84;100.00
32638;BME280;19045;52.268;10.506;2023-04-01T14:05:51;99075.78;;;10.78;100.00
32638;BME280;19045;52.268;10.506;2023-04-01T14:08:29;99075.94;;;10.68;100.00
32638;BME280;19045;52.268;10.506;2023-04-01T14:11:11;99083.50;;;10.66;100.00
32638;BME280;19045;52.268;10.506;2023-04-01T14:13:46;99078.84;;;10.53;100.00
32638;BME280;19045;52.268;10.506;2023-04-01T14:16:44;99099.59;;;10.47;100.00
32638;BME280;19045;52.268;10.506;2023-04-01T14:19:26;99095.53;;;10.50;100.00
32638;BME280;19045;52.268;10.506;2023-04-01T14:22:03;99107.66;;;10.47;100.00
32638;BME280;19045;52.268;10.506;2023-04-01T14:24:50;99106.44;;;10.34;100.00
32638;BME280;19045;52.268;10.506;2023-04-01T14:27:35;99119.88;;;10.34;100.00
32638;BME280;19045;52.268;10.506;2023-04-01T14:30:45;99123.94;;;10.32;100.00
32638;BME280;19045;52.268;10.506;2023-04-01T14:33:26;99123.69;;;10.28;100.00
32638;BME280;19045;52.268;10.506;2023-04-01T14:36:18;99131.22;;;10.03;100.00
32638;BME280;19045;52.268;10.506;2023-04-01T14:38:55;99138.53;;;9.97;100.00
32638;BME280;19045;52.268;10.506;2023-04-01T14:41:38;99152.72;;;9.74;100.00
32638;BME280;19045;52.268;10.506;2023-04-01T14:44:30;99146.41;;;9.55;100.00
32638;BME280;19045;52.268;10.506;2023-04-01T14:47:26;99150.53;;;9.47;100.00
32638;BME280;19045;52.268;10.506;2023-04-01T14:50:03;99149.16;;;9.50;100.00
32638;BME280;19045;52.268;10.506;2023-04-01T14:52:33;99157.47;;;9.48;100.00
32638;BME280;19045;52.268;10.506;2023-04-01T14:55:17;99170.38;;;9.46;100.00
32638;BME280;19045;52.268;10.506;2023-04-01T14:57:58;99177.09;;;9.44;100.00
32638;BME280;19045;52.268;10.506;2023-04-01T15:00:47;99171.88;;;9.23;100.00
32638;BME280;19045;52.268;10.506;2023-04-01T15:03:18;99177.25;;;9.23;100.00
32638;BME280;19045;52.268;10.506;2023-04-01T15:05:49;99187.47;;;9.16;100.00
32638;BME280;19045;52.268;10.506;2023-04-01T15:08:20;99188.03;;;9.13;100.00
32638;BME280;19045;52.268;10.506;2023-04-01T15:11:23;99184.59;;;9.03;100.00
32638;BME280;19045;52.268;10.506;2023-04-01T15:14:15;99193.75;;;8.92;100.00
32638;BME280;19045;52.268;10.506;2023-04-01T15:16:55;99204.19;;;8.93;100.00
32638;BME280;19045;52.268;10.506;2023-04-01T15:19:35;99211.44;;;8.98;100.00
32638;BME280;19045;52.268;10.506;2023-04-01T15:22:20;99221.03;;;9.04;100.00
32638;BME280;19045;52.268;10.506;2023-04-01T15:25:01;99217.53;;;9.03;100.00
32638;BME280;19045;52.268;10.506;2023-04-01T15:27:36;99226.94;;;9.01;100.00
32638;BME280;19045;52.268;10.506;2023-04-01T15:30:29;99236.56;;;9.02;100.00
32638;BME280;19045;52.268;10.506;2023-04-01T15:36:06;99241.66;;;9.03;100.00
32638;BME280;19045;52.268;10.506;2023-04-01T15:38:41;99237.88;;;9.09;100.00
32638;BME280;19045;52.268;10.506;2023-04-01T15:41:12;99244.34;;;9.03;100.00
32638;BME280;19045;52.268;10.506;2023-04-01T15:43:41;99251.34;;;8.94;100.00
32638;BME280;19045;52.268;10.506;2023-04-01T15:46:21;99249.47;;;8.90;100.00
32638;BME280;19045;52.268;10.506;2023-04-01T15:49:00;99256.19;;;8.87;100.00
32638;BME280;19045;52.268;10.506;2023-04-01T15:54:32;99273.94;;;8.68;100.00
32638;BME280;19045;52.268;10.506;2023-04-01T15:57:28;99273.41;;;8.56;100.00
32638;BME280;19045;52.268;10.506;2023-04-01T16:00:10;99277.47;;;8.48;100.00
32638;BME280;19045;52.268;10.506;2023-04-01T16:02:40;99279.63;;;8.36;100.00
32638;BME280;19045;52.268;10.506;2023-04-01T16:05:33;99282.31;;;8.31;100.00
32638;BME280;19045;52.268;10.506;2023-04-01T16:08:23;99287.13;;;8.29;100.00
32638;BME280;19045;52.268;10.506;2023-04-01T16:11:00;99296.47;;;8.21;100.00
32638;BME280;19045;52.268;10.506;2023-04-01T16:13:37;99299.94;;;8.27;100.00
32638;BME280;19045;52.268;10.506;2023-04-01T16:16:15;99299.72;;;8.28;100.00
32638;BME280;19045;52.268;10.506;2023-04-01T16:19:09;99312.28;;;8.28;100.00
32638;BME280;19045;52.268;10.506;2023-04-01T16:21:45;99314.38;;;8.16;100.00
32638;BME280;19045;52.268;10.506;2023-04-01T16:24:20;99311.44;;;8.02;100.00
32638;BME280;19045;52.268;10.506;2023-04-01T16:26:53;99321.09;;;8.03;100.00
32638;BME280;19045;52.268;10.506;2023-04-01T16:29:27;99330.44;;;7.96;100.00
32638;BME280;19045;52.268;10.506;2023-04-01T16:32:05;99318.41;;;7.88;100.00
32638;BME280;19045;52.268;10.506;2023-04-01T16:34:36;99327.50;;;7.82;100.00
32638;BME280;19045;52.268;10.506;2023-04-01T16:37:10;99330.97;;;7.88;100.00
32638;BME280;19045;52.268;10.506;2023-04-01T16:39:44;99345.13;;;7.73;100.00
32638;BME280;19045;52.268;10.506;2023-04-01T16:42:22;99332.81;;;7.77;100.00
32638;BME280;19045;52.268;10.506;2023-04-01T16:44:53;99354.72;;;7.69;100.00
32638;BME280;19045;52.268;10.506;2023-04-01T16:47:27;99356.06;;;7.66;100.00
32638;BME280;19045;52.268;10.506;2023-04-01T16:49:59;99361.16;;;7.68;100.00
32638;BME280;19045;52.268;10.506;2023-04-01T16:52:36;99370.75;;;7.64;100.00
32638;BME280;19045;52.268;10.506;2023-04-01T16:55:15;99377.41;;;7.56;100.00
32638;BME280;19045;52.268;10.506;2023-04-01T16:57:48;99375.56;;;7.62;100.00
32638;BME280;19045;52.268;10.506;2023-04-01T17:00:24;99386.50;;;7.60;100.00
32638;BME280;19045;52.268;10.506;2023-04-01T17:02:58;99393.72;;;7.60;100.00
32638;BME280;19045;52.268;10.506;2023-04-01T17:05:44;99407.91;;;7.60;100.00
32638;BME280;19045;52.268;10.506;2023-04-01T17:08:27;99397.22;;;7.60;100.00
32638;BME280;19045;52.268;10.506;2023-04-01T17:11:04;99414.81;;;7.51;100.00
32638;BME280;19045;52.268;10.506;2023-04-01T17:13:46;99416.94;;;7.49;100.00
32638;BME280;19045;52.268;10.506;2023-04-01T17:16:24;99421.44;;;7.39;100.00
32638;BME280;19045;52.268;10.506;2023-04-01T17:19:01;99433.97;;;7.33;100.00
32638;BME280;19045;52.268;10.506;2023-04-01T17:22:01;99424.88;;;7.29;100.00
32638;BME280;19045;52.268;10.506;2023-04-01T17:24:51;99441.13;;;7.22;100.00
32638;BME280;19045;52.268;10.506;2023-04-01T17:27:29;99443.81;;;7.27;100.00
32638;BME280;19045;52.268;10.506;2023-04-01T17:30:21;99442.50;;;7.30;100.00
32638;BME280;19045;52.268;10.506;2023-04-01T17:33:18;99457.19;;;7.27;100.00
32638;BME280;19045;52.268;10.506;2023-04-01T17:35:57;99460.91;;;7.26;100.00
32638;BME280;19045;52.268;10.506;2023-04-01T17:38:39;99463.53;;;7.16;100.00
32638;BME280;19045;52.268;10.506;2023-04-01T17:41:16;99469.66;;;7.12;100.00
32638;BME280;19045;52.268;10.506;2023-04-01T17:43:50;99473.13;;;7.12;100.00
32638;BME280;19045;52.268;10.506;2023-04-01T17:46:33;99482.66;;;7.03;100.00
32638;BME280;19045;52.268;10.506;2023-04-01T17:49:17;99489.59;;;6.99;100.00
32638;BME280;19045;52.268;10.506;2023-04-01T17:51:51;99499.72;;;6.97;100.00
32638;BME280;19045;52.268;10.506;2023-04-01T17:54:27;99507.66;;;6.87;100.00
32638;BME280;19045;52.268;10.506;2023-04-01T17:57:10;99512.16;;;6.82;100.00
32638;BME280;19045;52.268;10.506;2023-04-01T17:59:55;99512.06;;;6.71;100.00
32638;BME280;19045;52.268;10.506;2023-04-01T18:02:32;99529.69;;;6.72;100.00
32638;BME280;19045;52.268;10.506;2023-04-01T18:05:26;99519.22;;;6.66;100.00
32638;BME280;19045;52.268;10.506;2023-04-01T18:08:06;99528.28;;;6.65;100.00
32638;BME280;19045;52.268;10.506;2023-04-01T18:10:40;99541.41;;;6.71;100.00
32638;BME280;19045;52.268;10.506;2023-04-01T18:13:40;99544.81;;;6.62;100.00
32638;BME280;19045;52.268;10.506;2023-04-01T18:16:21;99563.31;;;6.47;100.00
32638;BME280;19045;52.268;10.506;2023-04-01T18:18:58;99545.66;;;6.41;100.00
32638;BME280;19045;52.268;10.506;2023-04-01T18:21:36;99565.31;;;6.35;100.00
32638;BME280;19045;52.268;10.506;2023-04-01T18:24:16;99560.53;;;6.37;100.00
32638;BME280;19045;52.268;10.506;2023-04-01T18:26:47;99581.13;;;6.41;100.00
32638;BME280;19045;52.268;10.506;2023-04-01T18:29:26;99579.59;;;6.45;100.00
32638;BME280;19045;52.268;10.506;2023-04-01T18:32:10;99590.50;;;6.44;100.00
32638;BME280;19045;52.268;10.506;2023-04-01T18:34:49;99598.50;;;6.44;100.00
32638;BME280;19045;52.268;10.506;2023-04-01T18:37:23;99602.25;;;6.43;100.00
32638;BME280;19045;52.268;10.506;2023-04-01T18:39:53;99610.72;;;6.40;100.00
32638;BME280;19045;52.268;10.506;2023-04-01T18:42:31;99609.13;;;6.39;100.00
32638;BME280;19045;52.268;10.506;2023-04-01T18:45:10;99605.66;;;6.38;100.00
32638;BME280;19045;52.268;10.506;2023-04-01T18:47:43;99612.84;;;6.38;100.00
32638;BME280;19045;52.268;10.506;2023-04-01T18:50:21;99612.53;;;6.34;100.00
32638;BME280;19045;52.268;10.506;2023-04-01T18:52:52;99617.94;;;6.17;100.00
32638;BME280;19045;52.268;10.506;2023-04-01T18:55:33;99629.16;;;6.19;100.00
32638;BME280;19045;52.268;10.506;2023-04-01T18:58:20;99636.16;;;6.26;100.00
32638;BME280;19045;52.268;10.506;2023-04-01T19:03:45;99647.53;;;6.16;100.00
32638;BME280;19045;52.268;10.506;2023-04-01T19:06:19;99651.53;;;6.18;100.00
32638;BME280;19045;52.268;10.506;2023-04-01T19:08:54;99665.38;;;6.15;100.00
32638;BME280;19045;52.268;10.506;2023-04-01T19:11:31;99668.91;;;6.21;100.00
32638;BME280;19045;52.268;10.506;2023-04-01T19:14:11;99673.38;;;6.15;100.00
32638;BME280;19045;52.268;10.506;2023-04-01T19:16:50;99689.56;;;6.09;100.00
32638;BME280;19045;52.268;10.506;2023-04-01T19:19:30;99661.72;;;6.00;100.00
32638;BME280;19045;52.268;10.506;2023-04-01T19:22:11;99684.97;;;5.88;100.00
32638;BME280;19045;52.268;10.506;2023-04-01T19:24:53;99697.00;;;5.90;100.00
32638;BME280;19045;52.268;10.506;2023-04-01T19:27:33;99690.63;;;5.91;100.00
32638;BME280;19045;52.268;10.506;2023-04-01T19:30:14;99703.63;;;5.88;100.00
32638;BME280;19045;52.268;10.506;2023-04-01T19:32:50;99712.75;;;5.92;100.00
32638;BME280;19045;52.268;10.506;2023-04-01T19:35:33;99719.88;;;5.86;100.00
32638;BME280;19045;52.268;10.506;2023-04-01T19:38:04;99719.25;;;5.84;100.00
32638;BME280;19045;52.268;10.506;2023-04-01T19:40:55;99725.09;;;5.81;100.00
32638;BME280;19045;52.268;10.506;2023-04-01T19:43:42;99742.75;;;5.70;100.00
32638;BME280;19045;52.268;10.506;2023-04-01T19:46:18;99742.38;;;5.62;100.00
32638;BME280;19045;52.268;10.506;2023-04-01T19:49:02;99743.66;;;5.59;100.00
32638;BME280;19045;52.268;10.506;2023-04-01T19:51:37;99749.63;;;5.50;100.00
32638;BME280;19045;52.268;10.506;2023-04-01T19:54:15;99757.69;;;5.55;100.00
32638;BME280;19045;52.268;10.506;2023-04-01T19:56:47;99761.38;;;5.37;100.00
32638;BME280;19045;52.268;10.506;2023-04-01T19:59:20;99770.91;;;5.33;100.00
32638;BME280;19045;52.268;10.506;2023-04-01T20:01:52;99774.81;;;5.31;100.00
32638;BME280;19045;52.268;10.506;2023-04-01T20:04:30;99780.63;;;5.28;100.00
32638;BME280;19045;52.268;10.506;2023-04-01T20:07:07;99776.19;;;5.16;100.00
32638;BME280;19045;52.268;10.506;2023-04-01T20:09:47;99792.97;;;5.17;100.00
32638;BME280;19045;52.268;10.506;2023-04-01T20:12:24;99784.06;;;5.11;100.00
32638;BME280;19045;52.268;10.506;2023-04-01T20:14:55;99806.38;;;5.22;100.00
32638;BME280;19045;52.268;10.506;2023-04-01T20:17:25;99814.56;;;5.20;100.00
32638;BME280;19045;52.268;10.506;2023-04-01T20:20:00;99823.72;;;5.25;100.00
32638;BME280;19045;52.268;10.506;2023-04-01T20:23:03;99824.66;;;5.30;100.00
32638;BME280;19045;52.268;10.506;2023-04-01T20:25:37;99841.06;;;5.27;100.00
32638;BME280;19045;52.268;10.506;2023-04-01T20:28:12;99838.94;;;5.12;100.00
32638;BME280;19045;52.268;10.506;2023-04-01T20:31:10;99841.59;;;5.12;100.00
32638;BME280;19045;52.268;10.506;2023-04-01T20:36:57;99851.59;;;4.82;100.00
32638;BME280;19045;52.268;10.506;2023-04-01T20:42:24;99867.56;;;4.82;100.00